createdAt,value
2023-09-08T00:00:00.245Z,19.33
2023-09-08T00:02:28.822Z,19.34
2023-09-08T00:04:57.057Z,19.33
2023-09-08T00:07:24.135Z,19.32
2023-09-08T00:09:51.406Z,19.32
2023-09-08T00:12:20.047Z,19.31
2023-09-08T00:14:46.943Z,19.30
2023-09-08T00:17:13.905Z,19.30
2023-09-08T00:19:42.057Z,19.30
2023-09-08T00:22:08.943Z,19.29
2023-09-08T00:24:35.859Z,19.25
2023-09-08T00:27:04.243Z,19.24
2023-09-08T00:29:31.116Z,19.24
2023-09-08T00:31:58.021Z,19.26
2023-09-08T00:34:26.208Z,19.25
2023-09-08T00:36:53.045Z,19.24
2023-09-08T00:39:20.219Z,19.22
2023-09-08T00:41:48.352Z,19.20
2023-09-08T00:44:15.422Z,19.18
2023-09-08T00:46:42.719Z,19.17
2023-09-08T00:49:12.014Z,19.15
2023-09-08T00:51:39.171Z,19.14
2023-09-08T00:54:07.164Z,19.11
2023-09-08T00:56:37.787Z,19.11
2023-09-08T00:59:05.789Z,19.12
2023-09-08T01:01:34.539Z,19.15
2023-09-08T01:04:02.330Z,19.14
2023-09-08T01:06:31.804Z,19.14
2023-09-08T01:09:00.392Z,19.16
2023-09-08T01:11:28.348Z,19.21
2023-09-08T01:13:55.192Z,19.22
2023-09-08T01:16:23.585Z,19.23
2023-09-08T01:18:52.355Z,19.23
2023-09-08T01:22:00.075Z,19.24
2023-09-08T01:25:05.824Z,19.27
2023-09-08T01:27:37.559Z,19.29
2023-09-08T01:30:07.301Z,19.31
2023-09-08T01:32:35.771Z,19.30
2023-09-08T01:35:03.408Z,19.30
2023-09-08T01:37:30.310Z,19.32
2023-09-08T01:39:58.514Z,19.36
2023-09-08T01:42:25.379Z,19.41
2023-09-08T01:44:52.369Z,19.45
2023-09-08T01:47:20.620Z,19.48
2023-09-08T01:49:47.509Z,19.51
2023-09-08T01:52:14.516Z,19.51
2023-09-08T01:54:42.885Z,19.49
2023-09-08T01:57:09.834Z,19.50
2023-09-08T01:59:36.709Z,19.50
2023-09-08T02:02:04.871Z,19.51
2023-09-08T02:04:32.202Z,19.51
2023-09-08T02:06:59.437Z,19.52
2023-09-08T02:09:36.913Z,19.52
2023-09-08T02:12:05.673Z,19.52
2023-09-08T02:14:32.579Z,19.51
2023-09-08T02:16:59.441Z,19.50
2023-09-08T02:19:27.706Z,19.46
2023-09-08T02:21:55.027Z,19.43
2023-09-08T02:24:22.027Z,19.41
2023-09-08T02:26:50.454Z,19.36
2023-09-08T02:29:17.711Z,19.33
2023-09-08T02:31:45.369Z,19.30
2023-09-08T02:34:13.557Z,19.29
2023-09-08T02:36:40.622Z,19.29
2023-09-08T02:39:07.557Z,19.29
2023-09-08T02:41:35.697Z,19.28
2023-09-08T02:44:03.351Z,19.29
2023-09-08T02:46:30.258Z,19.31
2023-09-08T02:48:58.439Z,19.33
2023-09-08T02:51:25.353Z,19.33
2023-09-08T02:53:52.279Z,19.30
2023-09-08T02:56:20.440Z,19.25
2023-09-08T02:58:47.383Z,19.21
2023-09-08T03:01:17.002Z,19.21
2023-09-08T03:03:45.300Z,19.22
2023-09-08T03:06:15.394Z,19.22
2023-09-08T03:08:43.791Z,19.19
2023-09-08T03:11:10.702Z,19.19
2023-09-08T03:13:37.659Z,19.18
2023-09-08T03:16:08.424Z,19.17
2023-09-08T03:18:37.489Z,19.16
2023-09-08T03:21:06.853Z,19.17
2023-09-08T03:23:33.740Z,19.19
2023-09-08T03:26:00.596Z,19.19
2023-09-08T03:28:27.898Z,19.19
2023-09-08T03:30:54.866Z,19.17
2023-09-08T03:33:22.015Z,19.16
2023-09-08T03:35:50.249Z,19.12
2023-09-08T03:38:17.093Z,19.08
2023-09-08T03:40:44.077Z,19.06
2023-09-08T03:43:12.449Z,19.01
2023-09-08T03:45:39.536Z,19.01
2023-09-08T03:48:06.799Z,19.00
2023-09-08T03:50:35.548Z,19.00
2023-09-08T03:53:02.876Z,19.01
2023-09-08T03:55:29.796Z,19.02
2023-09-08T03:57:58.150Z,19.01
2023-09-08T04:00:25.235Z,19.03
2023-09-08T04:02:52.417Z,19.03
2023-09-08T04:05:20.969Z,19.03
2023-09-08T04:07:48.062Z,19.02
2023-09-08T04:10:15.085Z,19.03
2023-09-08T04:12:43.250Z,18.99
2023-09-08T04:15:10.420Z,18.97
2023-09-08T04:17:38.318Z,18.99
2023-09-08T04:20:08.273Z,18.97
2023-09-08T04:22:35.247Z,18.93
2023-09-08T04:25:02.954Z,18.87
2023-09-08T04:27:31.097Z,18.81
2023-09-08T04:29:57.982Z,18.78
2023-09-08T04:32:25.415Z,18.77
2023-09-08T04:34:53.539Z,18.77
2023-09-08T04:37:20.432Z,18.76
2023-09-08T04:39:47.396Z,18.75
2023-09-08T04:42:15.540Z,18.75
2023-09-08T04:44:42.433Z,18.80
2023-09-08T04:47:09.299Z,18.86
2023-09-08T04:49:37.500Z,18.90
2023-09-08T04:52:05.121Z,18.94
2023-09-08T04:54:32.023Z,18.94
2023-09-08T04:57:11.851Z,18.93
2023-09-08T04:59:48.826Z,18.92
2023-09-08T05:02:15.823Z,18.88
2023-09-08T05:04:42.697Z,18.86
2023-09-08T05:07:10.847Z,18.84
2023-09-08T05:09:37.860Z,18.87
2023-09-08T05:12:05.016Z,18.90
2023-09-08T05:14:33.148Z,18.93
2023-09-08T05:17:00.038Z,18.93
2023-09-08T05:19:26.892Z,18.88
2023-09-08T05:21:55.721Z,18.87
2023-09-08T05:24:22.645Z,18.86
2023-09-08T05:26:49.505Z,18.84
2023-09-08T05:29:17.679Z,18.87
2023-09-08T05:31:44.639Z,18.91
2023-09-08T05:34:11.469Z,18.98
2023-09-08T05:36:39.825Z,19.04
2023-09-08T05:39:07.101Z,19.06
2023-09-08T05:41:34.070Z,19.09
2023-09-08T05:44:02.574Z,19.12
2023-09-08T05:46:29.541Z,19.17
2023-09-08T05:48:56.458Z,19.22
2023-09-08T05:51:24.049Z,19.27
2023-09-08T05:53:50.992Z,19.33
2023-09-08T05:56:19.876Z,19.38
2023-09-08T05:58:48.065Z,19.46
2023-09-08T06:01:16.485Z,19.53
2023-09-08T06:03:46.132Z,19.58
2023-09-08T06:06:13.107Z,19.60
2023-09-08T06:08:39.983Z,19.60
2023-09-08T06:11:08.154Z,19.59
2023-09-08T06:13:35.005Z,19.56
2023-09-08T06:16:01.870Z,19.58
2023-09-08T06:18:30.106Z,19.58
2023-09-08T06:20:57.696Z,19.56
2023-09-08T06:23:24.731Z,19.54
2023-09-08T06:25:57.001Z,19.50
2023-09-08T06:28:23.970Z,19.51
2023-09-08T06:30:52.154Z,19.55
2023-09-08T06:33:19.151Z,19.57
2023-09-08T06:35:47.327Z,19.61
2023-09-08T06:38:15.477Z,19.70
2023-09-08T06:40:42.407Z,19.78
2023-09-08T06:43:09.373Z,19.85
2023-09-08T06:45:40.579Z,19.90
2023-09-08T06:48:07.498Z,19.94
2023-09-08T06:50:36.698Z,19.98
2023-09-08T06:53:03.887Z,20.02
2023-09-08T06:55:31.053Z,20.05
2023-09-08T06:57:59.223Z,20.13
2023-09-08T07:00:26.128Z,20.22
2023-09-08T07:02:53.152Z,20.29
2023-09-08T07:05:21.649Z,20.34
2023-09-08T07:07:48.645Z,20.34
2023-09-08T07:10:17.241Z,20.34
2023-09-08T07:12:45.383Z,20.42
2023-09-08T07:15:12.290Z,20.50
2023-09-08T07:17:39.525Z,20.57
2023-09-08T07:20:08.430Z,20.62
2023-09-08T07:22:35.335Z,20.65
2023-09-08T07:25:02.474Z,20.67
2023-09-08T07:27:29.802Z,20.73
2023-09-08T07:29:56.804Z,20.77
2023-09-08T07:32:23.699Z,20.77
2023-09-08T07:34:51.369Z,20.71
2023-09-08T07:37:18.249Z,20.72
2023-09-08T07:39:46.184Z,20.71
2023-09-08T07:42:14.408Z,20.75
2023-09-08T07:44:41.287Z,20.84
2023-09-08T07:47:08.594Z,20.92
2023-09-08T07:49:37.144Z,21.00
2023-09-08T07:52:04.635Z,21.15
2023-09-08T07:54:31.525Z,21.21
2023-09-08T07:56:59.670Z,21.30
2023-09-08T07:59:26.644Z,21.48
2023-09-08T08:01:53.599Z,21.53
2023-09-08T08:04:20.998Z,21.49
2023-09-08T08:06:47.925Z,21.39
2023-09-08T08:09:14.782Z,21.26
2023-09-08T08:11:43.113Z,21.13
2023-09-08T08:14:10.033Z,21.11
2023-09-08T08:16:36.889Z,21.16
2023-09-08T08:19:05.074Z,21.24
2023-09-08T08:21:31.996Z,21.36
2023-09-08T08:23:58.866Z,21.47
2023-09-08T08:26:27.076Z,21.61
2023-09-08T08:28:53.949Z,21.68
2023-09-08T08:31:20.844Z,21.71
2023-09-08T08:33:49.049Z,21.76
2023-09-08T08:36:15.928Z,21.94
2023-09-08T08:38:42.957Z,22.10
2023-09-08T08:41:11.081Z,22.23
2023-09-08T08:43:38.289Z,22.37
2023-09-08T08:46:06.637Z,22.36
2023-09-08T08:48:36.588Z,22.36
2023-09-08T08:51:03.796Z,22.47
2023-09-08T08:53:31.770Z,22.59
2023-09-08T08:56:00.326Z,22.73
2023-09-08T08:58:29.183Z,22.76
2023-09-08T09:01:00.495Z,22.65
2023-09-08T09:03:28.100Z,22.54
2023-09-08T09:05:57.680Z,22.45
2023-09-08T09:08:25.194Z,22.55
2023-09-08T09:10:52.633Z,22.68
2023-09-08T09:13:20.830Z,22.81
2023-09-08T09:15:50.629Z,22.87
2023-09-08T09:18:19.865Z,22.95
2023-09-08T09:20:54.892Z,23.05
2023-09-08T09:23:34.853Z,23.16
2023-09-08T09:26:04.289Z,23.38
2023-09-08T09:28:31.344Z,23.52
2023-09-08T09:30:58.260Z,23.56
2023-09-08T09:33:28.277Z,23.85
2023-09-08T09:35:55.417Z,24.08
2023-09-08T09:38:22.366Z,24.20
2023-09-08T09:40:50.687Z,24.45
2023-09-08T09:43:21.823Z,24.71
2023-09-08T09:45:50.242Z,24.90
2023-09-08T09:48:21.083Z,25.01
2023-09-08T09:50:49.289Z,24.93
2023-09-08T09:53:17.398Z,24.74
2023-09-08T09:55:46.111Z,24.67
2023-09-08T09:58:14.284Z,24.72
2023-09-08T10:00:42.762Z,24.77
2023-09-08T10:03:10.719Z,24.87
2023-09-08T10:05:39.242Z,24.98
2023-09-08T10:08:06.361Z,25.14
2023-09-08T10:10:34.614Z,25.42
2023-09-08T10:13:07.020Z,26.58
2023-09-08T10:15:34.209Z,28.03
2023-09-08T10:18:05.847Z,28.22
2023-09-08T10:20:37.008Z,28.59
2023-09-08T10:23:14.046Z,29.32
2023-09-08T10:25:49.693Z,29.98
2023-09-08T10:28:18.312Z,29.90
2023-09-08T10:30:47.223Z,29.79
2023-09-08T10:33:17.985Z,29.76
2023-09-08T10:35:46.326Z,29.60
2023-09-08T10:38:26.504Z,29.94
2023-09-08T10:41:16.876Z,31.09
2023-09-08T10:43:57.075Z,31.70
2023-09-08T10:46:31.882Z,32.18
2023-09-08T10:49:07.408Z,33.34
2023-09-08T10:51:36.281Z,34.00
2023-09-08T10:54:03.553Z,34.74
2023-09-08T10:56:54.944Z,35.56
2023-09-08T10:59:29.158Z,36.79
2023-09-08T11:01:56.141Z,38.02
2023-09-08T11:04:25.753Z,38.98
2023-09-08T11:06:52.924Z,39.60
2023-09-08T11:09:20.542Z,40.24
2023-09-08T11:11:48.744Z,40.57
2023-09-08T11:14:15.686Z,41.00
2023-09-08T11:16:43.567Z,41.52
2023-09-08T11:19:11.717Z,42.03
2023-09-08T11:21:41.767Z,42.53
2023-09-08T11:24:10.783Z,42.91
2023-09-08T11:26:38.065Z,43.39
2023-09-08T11:29:05.832Z,43.99
2023-09-08T11:31:34.150Z,44.43
2023-09-08T11:34:01.123Z,44.97
2023-09-08T11:36:29.609Z,45.40
2023-09-08T11:38:57.847Z,45.51
2023-09-08T11:41:25.175Z,45.67
2023-09-08T11:43:52.740Z,45.71
2023-09-08T11:46:21.976Z,45.87
2023-09-08T11:48:49.349Z,45.95
2023-09-08T11:51:16.258Z,45.78
2023-09-08T11:53:44.527Z,45.68
2023-09-08T11:56:11.611Z,45.67
2023-09-08T11:58:39.148Z,45.42
2023-09-08T12:01:08.317Z,45.42
2023-09-08T12:03:35.288Z,45.62
2023-09-08T12:06:02.596Z,45.84
2023-09-08T12:08:31.043Z,46.06
2023-09-08T12:10:57.966Z,46.31
2023-09-08T12:13:24.872Z,46.18
2023-09-08T12:15:53.131Z,46.01
2023-09-08T12:18:38.180Z,45.82
2023-09-08T12:21:06.484Z,46.00
2023-09-08T12:23:33.344Z,46.03
2023-09-08T12:26:01.311Z,46.12
2023-09-08T12:28:31.353Z,46.14
2023-09-08T12:30:58.702Z,46.30
2023-09-08T12:33:27.962Z,46.43
2023-09-08T12:35:54.857Z,46.36
2023-09-08T12:38:21.914Z,46.04
2023-09-08T12:40:50.072Z,45.97
2023-09-08T12:43:27.178Z,45.58
2023-09-08T12:45:56.431Z,45.63
2023-09-08T12:48:24.372Z,45.74
2023-09-08T12:50:51.323Z,45.61
2023-09-08T12:53:19.930Z,45.59
2023-09-08T12:55:47.474Z,45.32
2023-09-08T12:58:15.073Z,45.03
2023-09-08T13:00:44.831Z,44.82
2023-09-08T13:03:12.066Z,44.80
2023-09-08T13:05:41.397Z,45.16
2023-09-08T13:08:08.343Z,45.54
2023-09-08T13:10:35.301Z,45.85
2023-09-08T13:13:04.056Z,46.07
2023-09-08T13:15:31.064Z,46.17
2023-09-08T13:17:58.005Z,46.34
2023-09-08T13:20:26.470Z,46.39
2023-09-08T13:22:53.363Z,46.30
2023-09-08T13:25:20.357Z,46.02
2023-09-08T13:27:48.563Z,45.57
2023-09-08T13:30:16.501Z,45.02
2023-09-08T13:32:44.902Z,44.93
2023-09-08T13:35:13.311Z,44.87
2023-09-08T13:37:40.242Z,44.86
2023-09-08T13:40:08.682Z,44.89
2023-09-08T13:42:37.738Z,45.03
2023-09-08T13:45:05.846Z,44.95
2023-09-08T13:47:33.798Z,44.79
2023-09-08T13:50:06.299Z,44.70
2023-09-08T13:52:37.334Z,44.76
2023-09-08T13:57:41.170Z,44.94
2023-09-08T14:00:16.358Z,44.81
2023-09-08T14:07:47.107Z,44.79
2023-09-08T14:12:53.806Z,43.99
2023-09-08T14:15:22.107Z,43.69
2023-09-08T14:17:49.100Z,43.10
2023-09-08T14:20:16.110Z,42.60
2023-09-08T14:22:44.372Z,42.05
2023-09-08T14:25:11.285Z,41.51
2023-09-08T14:27:38.232Z,41.00
2023-09-08T14:30:07.188Z,40.51
2023-09-08T14:32:34.248Z,39.97
2023-09-08T14:35:01.688Z,39.41
2023-09-08T14:37:29.916Z,38.99
2023-09-08T14:39:56.756Z,38.66
2023-09-08T14:42:23.617Z,38.47
2023-09-08T14:44:51.732Z,38.43
2023-09-08T14:47:18.740Z,38.26
2023-09-08T14:49:45.648Z,38.08
2023-09-08T14:52:13.826Z,37.83
2023-09-08T14:54:41.194Z,37.69
2023-09-08T14:57:08.148Z,37.68
2023-09-08T14:59:36.401Z,37.43
2023-09-08T15:02:03.673Z,37.07
2023-09-08T15:04:30.671Z,36.73
2023-09-08T15:06:58.839Z,36.37
2023-09-08T15:09:25.732Z,35.98
2023-09-08T15:11:52.567Z,35.85
2023-09-08T15:14:20.769Z,35.69
2023-09-08T15:16:47.689Z,35.53
2023-09-08T15:19:14.639Z,35.45
2023-09-08T15:21:42.797Z,35.54
2023-09-08T15:24:09.663Z,35.29
2023-09-08T15:26:36.578Z,34.88
2023-09-08T15:29:04.128Z,34.41
2023-09-08T15:31:31.292Z,34.06
2023-09-08T15:33:58.244Z,33.73
2023-09-08T15:36:26.416Z,33.20
2023-09-08T15:38:53.313Z,32.66
2023-09-08T15:41:20.189Z,32.26
2023-09-08T15:43:50.911Z,31.94
2023-09-08T15:46:19.185Z,31.66
2023-09-08T15:48:47.679Z,31.52
2023-09-08T15:51:15.393Z,31.45
2023-09-08T15:53:42.500Z,31.36
2023-09-08T15:56:10.842Z,31.13
2023-09-08T15:58:38.415Z,30.76
2023-09-08T16:01:05.378Z,30.37
2023-09-08T16:03:33.597Z,30.05
2023-09-08T16:06:00.750Z,29.67
2023-09-08T16:08:27.846Z,29.34
2023-09-08T16:10:56.024Z,29.12
2023-09-08T16:13:22.979Z,28.99
2023-09-08T16:15:49.906Z,28.91
2023-09-08T16:18:18.089Z,28.81
2023-09-08T16:20:45.001Z,28.75
2023-09-08T16:23:12.090Z,28.76
2023-09-08T16:25:40.289Z,28.80
2023-09-08T16:28:07.309Z,28.76
2023-09-08T16:30:36.017Z,28.53
2023-09-08T16:33:04.703Z,28.46
2023-09-08T16:35:31.605Z,28.39
2023-09-08T16:37:58.442Z,28.40
2023-09-08T16:40:25.827Z,28.55
2023-09-08T16:42:52.743Z,28.58
2023-09-08T16:45:19.578Z,28.45
2023-09-08T16:47:47.763Z,28.46
2023-09-08T16:50:14.608Z,28.51
2023-09-08T16:52:41.494Z,28.33
2023-09-08T16:55:09.647Z,28.03
2023-09-08T16:57:36.674Z,27.63
2023-09-08T17:00:04.721Z,27.27
2023-09-08T17:02:35.416Z,26.93
2023-09-08T17:05:02.914Z,26.63
2023-09-08T17:07:31.162Z,26.41
2023-09-08T17:09:58.603Z,26.20
2023-09-08T17:12:25.652Z,25.99
2023-09-08T17:14:54.484Z,25.81
2023-09-08T17:17:21.754Z,25.63
2023-09-08T17:19:48.675Z,25.42
2023-09-08T17:22:16.927Z,25.17
2023-09-08T17:24:43.849Z,24.92
2023-09-08T17:27:10.776Z,24.70
2023-09-08T17:29:38.963Z,24.51
2023-09-08T17:32:05.856Z,24.33
2023-09-08T17:34:32.681Z,24.18
2023-09-08T17:37:00.836Z,24.06
2023-09-08T17:39:28.080Z,23.89
2023-09-08T17:41:56.346Z,23.75
2023-09-08T17:44:24.561Z,23.62
2023-09-08T17:46:51.597Z,23.51
2023-09-08T17:49:18.586Z,23.41
2023-09-08T17:51:46.707Z,23.31
2023-09-08T17:54:13.633Z,23.19
2023-09-08T17:56:40.568Z,23.07
2023-09-08T17:59:07.933Z,22.98
2023-09-08T18:01:34.998Z,22.86
2023-09-08T18:04:02.180Z,22.79
2023-09-08T18:06:30.455Z,22.72
2023-09-08T18:08:57.341Z,22.65
2023-09-08T18:11:24.285Z,22.59
2023-09-08T18:13:52.419Z,22.57
2023-09-08T18:16:19.341Z,22.52
2023-09-08T18:18:46.233Z,22.47
2023-09-08T18:21:13.819Z,22.41
2023-09-08T18:23:41.413Z,22.31
2023-09-08T18:26:08.497Z,22.22
2023-09-08T18:28:36.026Z,22.14
2023-09-08T18:31:03.187Z,22.05
2023-09-08T18:33:30.183Z,21.98
2023-09-08T18:35:58.460Z,21.92
2023-09-08T18:38:25.958Z,21.91
2023-09-08T18:40:52.860Z,21.88
2023-09-08T18:43:21.062Z,21.86
2023-09-08T18:45:47.912Z,21.83
2023-09-08T18:48:14.863Z,21.80
2023-09-08T18:50:43.247Z,21.78
2023-09-08T18:53:10.414Z,21.75
2023-09-08T18:55:37.348Z,21.73
2023-09-08T18:58:05.528Z,21.73
2023-09-08T19:00:32.446Z,21.72
2023-09-08T19:03:00.003Z,21.70
2023-09-08T19:05:28.729Z,21.69
2023-09-08T19:07:55.638Z,21.68
2023-09-08T19:10:22.552Z,21.66
2023-09-08T19:12:50.726Z,21.65
2023-09-08T19:15:17.629Z,21.62
2023-09-08T19:17:44.609Z,21.60
2023-09-08T19:20:12.940Z,21.60
2023-09-08T19:22:39.853Z,21.59
2023-09-08T19:25:07.199Z,21.58
2023-09-08T19:27:36.687Z,21.57
2023-09-08T19:30:04.622Z,21.55
2023-09-08T19:32:33.825Z,21.53
2023-09-08T19:35:00.942Z,21.51
2023-09-08T19:37:27.934Z,21.50
2023-09-08T19:39:56.185Z,21.47
2023-09-08T19:42:23.146Z,21.45
2023-09-08T19:44:50.088Z,21.44
2023-09-08T19:47:18.285Z,21.41
2023-09-08T19:49:45.184Z,21.37
2023-09-08T19:52:12.447Z,21.34
2023-09-08T19:54:40.809Z,21.34
2023-09-08T19:57:07.699Z,21.32
2023-09-08T19:59:35.398Z,21.28
2023-09-08T20:02:03.730Z,21.26
2023-09-08T20:04:30.645Z,21.21
2023-09-08T20:06:57.545Z,21.18
2023-09-08T20:09:25.900Z,21.16
2023-09-08T20:11:52.806Z,21.15
2023-09-08T20:14:19.669Z,21.12
2023-09-08T20:16:48.055Z,21.09
2023-09-08T20:19:14.911Z,21.06
2023-09-08T20:21:41.817Z,21.04
2023-09-08T20:24:10.051Z,21.02
2023-09-08T20:26:36.927Z,21.01
2023-09-08T20:29:04.005Z,21.01
2023-09-08T20:31:32.227Z,20.97
2023-09-08T20:33:59.114Z,20.95
2023-09-08T20:36:26.038Z,20.93
2023-09-08T20:38:54.184Z,20.92
2023-09-08T20:41:21.085Z,20.93
2023-09-08T20:43:48.003Z,20.93
2023-09-08T20:46:16.166Z,20.91
2023-09-08T20:48:43.058Z,20.90
2023-09-08T20:51:13.632Z,20.87
2023-09-08T20:53:42.291Z,20.85
2023-09-08T20:56:10.572Z,20.85
2023-09-08T20:58:42.429Z,20.86
2023-09-08T21:01:10.472Z,20.86
2023-09-08T21:03:39.298Z,20.84
2023-09-08T21:06:07.210Z,20.79
2023-09-08T21:08:34.204Z,20.82
2023-09-08T21:11:02.402Z,20.81
2023-09-08T21:13:29.700Z,20.79
2023-09-08T21:15:56.626Z,20.77
2023-09-08T21:18:24.784Z,20.75
2023-09-08T21:20:51.677Z,20.71
2023-09-08T21:23:18.573Z,20.69
2023-09-08T21:25:46.795Z,20.65
2023-09-08T21:28:13.661Z,20.65
2023-09-08T21:30:40.614Z,20.63
2023-09-08T21:33:09.154Z,20.60
2023-09-08T21:35:36.115Z,20.58
2023-09-08T21:38:03.080Z,20.55
2023-09-08T21:40:31.246Z,20.50
2023-09-08T21:42:58.665Z,20.48
2023-09-08T21:45:25.740Z,20.48
2023-09-08T21:47:53.952Z,20.46
2023-09-08T21:50:20.819Z,20.44
2023-09-08T21:52:47.728Z,20.42
2023-09-08T21:55:15.944Z,20.38
2023-09-08T21:57:42.838Z,20.35
2023-09-08T22:00:10.210Z,20.32
2023-09-08T22:02:38.476Z,20.31
2023-09-08T22:05:06.038Z,20.29
2023-09-08T22:07:35.361Z,20.26
2023-09-08T22:10:02.414Z,20.24
2023-09-08T22:12:29.331Z,20.21
2023-09-08T22:14:57.439Z,20.19
2023-09-08T22:17:24.284Z,20.17
2023-09-08T22:19:54.026Z,20.17
2023-09-08T22:22:22.243Z,20.14
2023-09-08T22:24:49.127Z,20.11
2023-09-08T22:27:16.043Z,20.09
2023-09-08T22:29:44.198Z,20.07
2023-09-08T22:32:11.042Z,20.07
2023-09-08T22:34:37.938Z,20.08
2023-09-08T22:37:06.123Z,20.07
2023-09-08T22:39:32.985Z,20.04
2023-09-08T22:41:59.818Z,20.00
2023-09-08T22:44:27.944Z,19.97
2023-09-08T22:46:54.887Z,19.98
2023-09-08T22:49:21.846Z,19.97
2023-09-08T22:51:49.957Z,19.97
2023-09-08T22:54:16.840Z,19.96
2023-09-08T22:56:43.708Z,19.94
2023-09-08T22:59:11.829Z,19.91
2023-09-08T23:01:38.715Z,19.85
2023-09-08T23:04:05.821Z,19.79
2023-09-08T23:06:33.966Z,19.73
2023-09-08T23:09:00.803Z,19.66
2023-09-08T23:11:27.881Z,19.60
2023-09-08T23:13:56.022Z,19.54
2023-09-08T23:16:22.982Z,19.48
2023-09-08T23:18:49.821Z,19.45
2023-09-08T23:21:17.996Z,19.41
2023-09-08T23:23:44.869Z,19.39
2023-09-08T23:26:11.756Z,19.36
2023-09-08T23:28:39.927Z,19.35
2023-09-08T23:31:06.831Z,19.36
2023-09-08T23:33:33.754Z,19.40
2023-09-08T23:36:01.958Z,19.41
2023-09-08T23:38:28.851Z,19.42
2023-09-08T23:40:55.740Z,19.40
2023-09-08T23:43:23.880Z,19.38
2023-09-08T23:45:50.750Z,19.35
2023-09-08T23:48:17.603Z,19.29
2023-09-08T23:50:55.420Z,19.24
2023-09-08T23:53:28.688Z,19.17
2023-09-08T23:55:55.893Z,19.12
2023-09-08T23:58:24.187Z,19.07
